Time;durP1;ratioP1;P1;durP2;ratioP2;P2;SDS_P1;SDS_P2;PMS_P1;PMS_P2;Temp;Humidity;BMP_temperature;BMP_pressure;BME280_temperature;BME280_humidity;BME280_pressure;Samples;Min_cycle;Max_cycle;Signal;HPM_P1;HPM_P2
2022/12/01 00:00:43;;;;;;;21.80;12.60;;;10.60;55.20;;;;;;5021385;28;20520;-51
2022/12/01 00:03:09;;;;;;;19.97;11.93;;;10.50;55.40;;;;;;5026722;28;20444;-49
2022/12/01 00:05:35;;;;;;;18.53;12.70;;;10.50;55.40;;;;;;5023022;28;20787;-51
2022/12/01 00:08:01;;;;;;;18.50;12.60;;;10.50;55.20;;;;;;5023442;28;20278;-48
2022/12/01 00:10:27;;;;;;;22.17;13.10;;;10.40;55.10;;;;;;5031030;28;20436;-49
2022/12/01 00:12:55;;;;;;;19.33;13.13;;;10.30;55.40;;;;;;5028506;28;20573;-49
2022/12/01 00:15:21;;;;;;;18.47;12.53;;;10.10;55.60;;;;;;5023363;28;20444;-52
2022/12/01 00:17:48;;;;;;;18.30;11.83;;;10.20;55.70;;;;;;5023815;28;20475;-49
2022/12/01 00:20:17;;;;;;;19.20;12.70;;;10.20;55.60;;;;;;5024289;28;20441;-51
2022/12/01 00:22:43;;;;;;;20.67;13.00;;;10.20;55.90;;;;;;5027065;28;20830;-50
2022/12/01 00:25:09;;;;;;;22.00;13.80;;;10.20;55.60;;;;;;5022554;28;20436;-51
2022/12/01 00:27:35;;;;;;;17.97;12.53;;;10.30;55.70;;;;;;5020608;28;20432;-49
2022/12/01 00:30:01;;;;;;;18.83;13.20;;;10.40;55.50;;;;;;5024641;28;20829;-48
2022/12/01 00:32:29;;;;;;;18.93;13.23;;;10.30;55.40;;;;;;5023236;28;20661;-48
2022/12/01 00:34:55;;;;;;;21.77;14.50;;;10.30;55.50;;;;;;5026522;28;20672;-49
2022/12/01 00:37:20;;;;;;;23.50;14.70;;;10.30;56.20;;;;;;5024304;28;20444;-50
2022/12/01 00:39:46;;;;;;;24.30;14.70;;;10.30;55.60;;;;;;5024608;28;20637;-49
2022/12/01 00:42:11;;;;;;;23.00;14.97;;;10.30;55.80;;;;;;5028239;28;20559;-52
2022/12/01 00:44:37;;;;;;;20.43;13.30;;;10.30;55.80;;;;;;5024816;28;20198;-51
2022/12/01 00:47:02;;;;;;;17.73;12.40;;;10.20;55.80;;;;;;5023780;28;20599;-52
2022/12/01 00:49:28;;;;;;;21.70;15.30;;;10.20;56.00;;;;;;5021181;28;20228;-49
2022/12/01 00:51:53;;;;;;;21.67;14.60;;;10.20;55.80;;;;;;5020599;28;20211;-53
2022/12/01 00:54:19;;;;;;;19.27;13.10;;;10.30;55.80;;;;;;5020571;28;20241;-54
2022/12/01 00:56:44;;;;;;;20.10;14.37;;;10.20;55.60;;;;;;5023939;28;20279;-52
2022/12/01 00:59:10;;;;;;;17.83;12.47;;;10.10;55.50;;;;;;5025527;28;20556;-52
2022/12/01 01:01:36;;;;;;;18.60;13.10;;;10.00;55.50;;;;;;5023390;28;20204;-52
2022/12/01 01:04:02;;;;;;;18.90;13.20;;;9.90;56.20;;;;;;5023342;28;20193;-52
2022/12/01 01:06:28;;;;;;;16.57;11.70;;;9.80;56.30;;;;;;5028599;28;20197;-51
2022/12/01 01:08:54;;;;;;;20.03;12.50;;;9.60;56.40;;;;;;5024223;28;20483;-52
2022/12/01 01:11:19;;;;;;;16.97;11.87;;;9.60;56.50;;;;;;5025401;28;20517;-51
2022/12/01 01:13:45;;;;;;;19.03;12.90;;;9.50;56.70;;;;;;5025475;28;20196;-53
2022/12/01 01:16:19;;;;;;;24.63;13.93;;;9.50;56.80;;;;;;5021262;28;20189;-49
2022/12/01 01:18:45;;;;;;;21.23;13.47;;;9.60;56.70;;;;;;5015445;28;20215;-54
2022/12/01 01:21:14;;;;;;;18.50;12.10;;;9.70;56.70;;;;;;5027434;28;20432;-54
2022/12/01 01:23:40;;;;;;;19.77;12.63;;;9.70;56.50;;;;;;5023951;28;20443;-52
2022/12/01 01:26:13;;;;;;;17.37;12.43;;;9.90;56.30;;;;;;5027718;28;20450;-52
2022/12/01 01:28:40;;;;;;;18.33;12.70;;;9.90;56.10;;;;;;5028089;28;20263;-49
2022/12/01 01:31:07;;;;;;;19.50;12.73;;;9.90;55.90;;;;;;5029764;28;20523;-52
2022/12/01 01:33:33;;;;;;;17.50;12.00;;;9.90;55.90;;;;;;5023027;28;20546;-51
2022/12/01 01:36:00;;;;;;;16.60;11.40;;;9.50;56.00;;;;;;5025240;28;20448;-52
2022/12/01 01:38:26;;;;;;;24.13;12.73;;;9.60;56.30;;;;;;5024095;28;20216;-53
2022/12/01 01:40:52;;;;;;;17.93;12.60;;;9.70;56.40;;;;;;5018593;28;20951;-52
2022/12/01 01:43:39;;;;;;;19.93;13.10;;;9.70;56.40;;;;;;5031196;28;20439;-52
2022/12/01 01:46:06;;;;;;;19.60;12.93;;;9.90;56.30;;;;;;5019673;28;20274;-54
2022/12/01 01:48:33;;;;;;;17.10;12.80;;;9.90;56.00;;;;;;5023403;28;20502;-52
2022/12/01 01:50:59;;;;;;;21.60;14.00;;;10.00;55.10;;;;;;5025072;28;20459;-53
2022/12/01 01:53:25;;;;;;;18.13;12.40;;;10.10;55.00;;;;;;5023854;28;20480;-52
2022/12/01 01:55:51;;;;;;;19.00;12.63;;;10.10;55.00;;;;;;5026299;28;20511;-51
2022/12/01 01:58:17;;;;;;;18.73;12.80;;;10.10;55.20;;;;;;5023877;28;20458;-49
2022/12/01 02:00:44;;;;;;;20.50;12.70;;;10.20;55.20;;;;;;5022045;28;20266;-50
2022/12/01 02:03:14;;;;;;;23.20;13.30;;;10.00;55.20;;;;;;5024462;28;20440;-52
2022/12/01 02:05:41;;;;;;;18.50;12.80;;;10.10;55.20;;;;;;5023033;28;20447;-52
2022/12/01 02:08:13;;;;;;;17.20;11.30;;;10.10;55.10;;;;;;5019558;28;20503;-51
2022/12/01 02:10:47;;;;;;;19.67;12.47;;;10.00;55.00;;;;;;5020843;28;20444;-53
2022/12/01 02:13:31;;;;;;;15.77;11.50;;;9.90;55.80;;;;;;5023909;28;21024;-53
2022/12/01 02:16:06;;;;;;;17.60;12.73;;;9.90;56.10;;;;;;5017634;28;20440;-52
2022/12/01 02:18:57;;;;;;;21.20;13.60;;;9.90;56.40;;;;;;5025837;28;20528;-51
2022/12/01 02:21:26;;;;;;;18.67;12.83;;;9.90;56.40;;;;;;5026140;28;20478;-49
2022/12/01 02:24:27;;;;;;;16.87;12.47;;;9.80;56.40;;;;;;5024917;28;20525;-50
2022/12/01 02:27:00;;;;;;;20.67;13.73;;;9.90;56.40;;;;;;4943437;28;20455;-52
2022/12/01 02:29:26;;;;;;;21.47;13.90;;;9.90;56.10;;;;;;5009192;28;20522;-53
2022/12/01 02:32:08;;;;;;;20.07;13.90;;;10.00;55.20;;;;;;5024073;28;20476;-53
2022/12/01 02:34:43;;;;;;;21.13;13.73;;;10.00;55.30;;;;;;5030204;28;20197;-51
2022/12/01 02:37:30;;;;;;;21.93;13.83;;;10.00;55.30;;;;;;5025430;28;20448;-51
2022/12/01 02:40:05;;;;;;;20.70;13.07;;;10.00;55.20;;;;;;5027483;28;21199;-50
2022/12/01 02:42:48;;;;;;;20.20;13.60;;;10.10;55.10;;;;;;5024589;28;20869;-50
2022/12/01 02:45:19;;;;;;;19.40;13.70;;;10.10;55.00;;;;;;5025584;28;20447;-53
2022/12/01 02:47:47;;;;;;;22.47;14.10;;;10.10;55.10;;;;;;5026532;28;21038;-54
2022/12/01 02:50:13;;;;;;;20.63;13.67;;;10.10;55.00;;;;;;5024809;28;20492;-50
2022/12/01 02:52:39;;;;;;;18.77;13.03;;;10.00;55.00;;;;;;5031344;28;20783;-52
2022/12/01 02:55:05;;;;;;;19.70;12.47;;;10.00;55.20;;;;;;5022617;28;20976;-53
2022/12/01 02:57:31;;;;;;;22.07;13.57;;;10.10;55.20;;;;;;5029385;28;20497;-54
2022/12/01 02:59:58;;;;;;;19.23;12.90;;;10.20;55.10;;;;;;5028802;28;20460;-51
2022/12/01 03:02:47;;;;;;;18.53;13.23;;;10.20;54.70;;;;;;5023991;28;20201;-52
2022/12/01 03:05:34;;;;;;;21.90;12.87;;;10.20;54.80;;;;;;5028992;28;20493;-51
2022/12/01 03:08:31;;;;;;;19.47;12.90;;;10.20;54.90;;;;;;5023505;28;20540;-53
2022/12/01 03:11:00;;;;;;;20.47;11.50;;;10.30;54.80;;;;;;5026566;28;20452;-51
2022/12/01 03:13:41;;;;;;;18.80;12.93;;;10.20;54.40;;;;;;5028452;28;20444;-51
2022/12/01 03:16:28;;;;;;;20.03;12.10;;;10.30;54.40;;;;;;5027904;28;20440;-53
2022/12/01 03:19:05;;;;;;;22.30;13.47;;;10.20;54.40;;;;;;5024589;28;20446;-51
2022/12/01 03:22:24;;;;;;;22.60;13.30;;;10.20;54.40;;;;;;5025575;28;20435;-54
2022/12/01 03:24:53;;;;;;;20.40;13.27;;;10.20;54.30;;;;;;5007805;28;20478;-52
2022/12/01 03:27:23;;;;;;;20.60;13.43;;;10.20;54.10;;;;;;5028798;28;20514;-51
2022/12/01 03:29:51;;;;;;;21.30;13.50;;;10.20;54.10;;;;;;5029117;28;20514;-53
2022/12/01 03:32:35;;;;;;;20.83;12.90;;;10.10;54.20;;;;;;5025304;28;20440;-54
2022/12/01 03:35:09;;;;;;;21.43;13.40;;;9.90;55.20;;;;;;5027249;28;20448;-53
2022/12/01 03:37:50;;;;;;;18.10;12.03;;;9.80;55.40;;;;;;5025680;28;20542;-53
2022/12/01 03:40:21;;;;;;;21.43;14.10;;;9.80;55.60;;;;;;5024626;28;20443;-51
2022/12/01 03:42:56;;;;;;;19.50;12.87;;;9.90;55.60;;;;;;5025670;28;20451;-54
2022/12/01 03:45:41;;;;;;;21.27;13.63;;;9.50;55.50;;;;;;5025737;28;20443;-52
2022/12/01 03:48:07;;;;;;;21.40;12.90;;;9.50;56.50;;;;;;5024636;28;20472;-53
2022/12/01 03:50:48;;;;;;;18.87;12.40;;;9.40;56.70;;;;;;5023803;28;21800;-52
2022/12/01 03:53:20;;;;;;;20.03;13.50;;;9.40;56.60;;;;;;5028018;28;20444;-51
2022/12/01 03:55:50;;;;;;;23.50;13.90;;;9.40;56.70;;;;;;5025970;28;20443;-52
2022/12/01 03:58:22;;;;;;;19.50;13.00;;;9.50;56.70;;;;;;5027785;28;20428;-53
2022/12/01 04:00:52;;;;;;;20.03;14.00;;;9.60;56.50;;;;;;5029856;28;20523;-51
2022/12/01 04:03:21;;;;;;;19.80;13.57;;;9.70;56.20;;;;;;5024904;28;20440;-52
2022/12/01 04:05:47;;;;;;;20.63;13.20;;;9.80;56.10;;;;;;5027424;28;20455;-52
2022/12/01 04:08:13;;;;;;;20.60;14.10;;;9.80;56.20;;;;;;5026397;28;20956;-54
2022/12/01 04:10:38;;;;;;;18.70;12.30;;;9.90;56.00;;;;;;5026471;28;20439;-50
2022/12/01 04:13:04;;;;;;;18.20;12.20;;;9.80;55.80;;;;;;5030176;28;20251;-50
2022/12/01 04:15:30;;;;;;;23.80;13.47;;;9.90;55.90;;;;;;5026421;28;20192;-52
2022/12/01 04:17:55;;;;;;;21.70;14.13;;;10.00;55.10;;;;;;5029053;28;20919;-52
2022/12/01 04:20:21;;;;;;;21.50;11.70;;;10.00;54.90;;;;;;5024919;28;20244;-52
2022/12/01 04:22:47;;;;;;;20.87;14.13;;;10.00;54.50;;;;;;5029532;28;20193;-50
2022/12/01 04:25:12;;;;;;;19.80;13.80;;;10.00;54.90;;;;;;5027398;28;20190;-54
2022/12/01 04:27:38;;;;;;;21.03;14.37;;;9.90;56.00;;;;;;5009743;28;20494;-52
2022/12/01 04:30:05;;;;;;;18.50;12.50;;;10.00;55.20;;;;;;5029965;28;20201;-54
2022/12/01 04:32:35;;;;;;;23.50;14.20;;;10.00;54.90;;;;;;5023905;28;20196;-51
2022/12/01 04:35:01;;;;;;;21.23;14.23;;;10.00;54.90;;;;;;5021140;28;20467;-53
2022/12/01 04:37:26;;;;;;;18.47;11.60;;;10.10;54.90;;;;;;5023901;28;20440;-54
2022/12/01 04:39:52;;;;;;;20.23;14.33;;;10.10;55.00;;;;;;5027980;28;20290;-50
2022/12/01 04:42:18;;;;;;;17.23;12.70;;;10.10;54.80;;;;;;5025731;28;20204;-54
2022/12/01 04:44:43;;;;;;;20.00;13.10;;;10.10;54.80;;;;;;5025595;28;20201;-52
2022/12/01 04:47:09;;;;;;;19.63;13.70;;;10.20;54.70;;;;;;5022362;28;20201;-54
2022/12/01 04:49:36;;;;;;;21.70;15.00;;;10.20;54.60;;;;;;5027884;28;20233;-54
2022/12/01 04:52:01;;;;;;;24.73;14.60;;;10.20;54.60;;;;;;5019750;28;20427;-53
2022/12/01 04:54:27;;;;;;;21.83;14.40;;;10.10;54.80;;;;;;5022794;28;20551;-52
2022/12/01 04:56:53;;;;;;;20.63;14.60;;;10.10;54.80;;;;;;5023954;28;20280;-52
2022/12/01 04:59:18;;;;;;;21.40;15.00;;;10.10;54.70;;;;;;5021561;28;20950;-54
2022/12/01 05:01:46;;;;;;;22.40;14.73;;;10.20;54.90;;;;;;5019989;28;20198;-51
2022/12/01 05:04:13;;;;;;;21.20;14.50;;;10.20;54.90;;;;;;5024557;28;20238;-53
2022/12/01 05:06:39;;;;;;;24.27;15.53;;;10.20;54.90;;;;;;5025280;28;20603;-51
2022/12/01 05:09:04;;;;;;;24.60;15.70;;;10.30;55.00;;;;;;5023447;28;21115;-52
2022/12/01 05:11:31;;;;;;;20.50;14.00;;;10.30;55.00;;;;;;5027559;28;20515;-51
2022/12/01 05:13:57;;;;;;;20.80;14.63;;;10.30;54.80;;;;;;5032346;28;20827;-50
2022/12/01 05:16:26;;;;;;;21.27;14.37;;;10.30;54.50;;;;;;5022554;28;20440;-50
2022/12/01 05:21:40;;;;;;;20.90;13.50;;;10.20;54.10;;;;;;5021362;28;20458;-52
2022/12/01 05:24:07;;;;;;;23.80;14.90;;;10.20;54.20;;;;;;5021795;28;20448;-50
2022/12/01 05:26:32;;;;;;;21.43;14.10;;;10.20;54.20;;;;;;5023221;28;20543;-50
2022/12/01 05:28:58;;;;;;;24.50;15.63;;;10.20;54.20;;;;;;5020436;28;21149;-50
2022/12/01 05:31:24;;;;;;;23.37;14.33;;;10.20;54.30;;;;;;5002478;28;20558;-50
2022/12/01 05:33:49;;;;;;;23.97;14.97;;;10.10;54.40;;;;;;5025893;28;20195;-50
2022/12/01 05:36:15;;;;;;;23.30;15.27;;;10.20;54.60;;;;;;5020854;28;20197;-52
2022/12/01 05:38:40;;;;;;;22.63;14.90;;;10.20;54.50;;;;;;5021707;28;20305;-50
2022/12/01 05:41:06;;;;;;;21.73;14.20;;;10.20;54.60;;;;;;5022846;28;20197;-52
2022/12/01 05:43:32;;;;;;;22.93;16.37;;;10.10;54.60;;;;;;5025764;28;20193;-51
2022/12/01 05:45:57;;;;;;;23.10;14.97;;;10.10;54.80;;;;;;5026456;28;20208;-52
2022/12/01 05:48:23;;;;;;;26.90;16.37;;;9.90;55.80;;;;;;5020682;28;20252;-55
2022/12/01 05:50:48;;;;;;;25.87;15.10;;;10.00;55.20;;;;;;5026275;28;20280;-50
2022/12/01 05:53:14;;;;;;;23.33;15.60;;;10.00;55.20;;;;;;5030435;28;20201;-50
2022/12/01 05:55:40;;;;;;;21.07;14.60;;;10.10;55.00;;;;;;5026861;28;20281;-50
2022/12/01 05:58:06;;;;;;;27.60;16.50;;;10.10;54.90;;;;;;5027942;28;20203;-53
2022/12/01 06:00:33;;;;;;;22.10;15.80;;;10.10;54.80;;;;;;5029415;28;20649;-50
2022/12/01 06:02:58;;;;;;;26.30;15.53;;;10.00;54.60;;;;;;5030099;28;20472;-50
2022/12/01 06:05:24;;;;;;;23.00;15.70;;;10.00;54.80;;;;;;5029512;28;20448;-51
2022/12/01 06:07:49;;;;;;;26.00;17.10;;;9.70;55.70;;;;;;5020026;28;21683;-51
2022/12/01 06:10:15;;;;;;;23.50;16.10;;;9.60;56.40;;;;;;5040802;28;20189;-51
2022/12/01 06:12:41;;;;;;;27.60;17.07;;;9.50;56.60;;;;;;5022562;28;20220;-51
2022/12/01 06:15:07;;;;;;;24.87;16.50;;;9.40;56.80;;;;;;5018935;28;20540;-50
2022/12/01 06:17:33;;;;;;;23.37;16.23;;;9.30;57.00;;;;;;5023444;28;20189;-53
2022/12/01 06:19:58;;;;;;;27.77;16.60;;;9.30;57.10;;;;;;5023805;28;20451;-53
2022/12/01 06:22:24;;;;;;;23.90;16.57;;;9.20;57.20;;;;;;5021815;28;20209;-49
2022/12/01 06:24:49;;;;;;;26.47;16.30;;;9.20;57.30;;;;;;5024794;28;20217;-52
2022/12/01 06:27:15;;;;;;;25.13;16.40;;;9.20;59.00;;;;;;5023170;28;20255;-54
2022/12/01 06:29:41;;;;;;;22.20;15.20;;;9.50;60.80;;;;;;5018917;28;20233;-53
2022/12/01 06:32:06;;;;;;;25.07;15.67;;;9.80;59.70;;;;;;5024905;28;20272;-52
2022/12/01 06:34:32;;;;;;;24.27;14.80;;;10.00;56.90;;;;;;5027691;28;20189;-50
2022/12/01 06:36:58;;;;;;;25.77;17.03;;;10.20;57.00;;;;;;5027132;28;20280;-51
2022/12/01 06:39:23;;;;;;;26.67;17.37;;;10.40;57.40;;;;;;5020088;28;20189;-50
2022/12/01 06:41:49;;;;;;;23.47;16.20;;;10.70;57.20;;;;;;5024805;28;20730;-50
2022/12/01 06:44:14;;;;;;;24.60;15.30;;;10.70;56.30;;;;;;5025132;28;20735;-50
2022/12/01 06:46:40;;;;;;;26.13;16.20;;;10.90;56.00;;;;;;5025179;28;20222;-50
2022/12/01 06:49:12;;;;;;;25.67;17.40;;;10.90;56.00;;;;;;5026779;28;20228;-51
2022/12/01 06:51:38;;;;;;;23.20;16.03;;;10.90;54.50;;;;;;5030375;28;20192;-50
2022/12/01 06:54:04;;;;;;;23.03;15.47;;;10.70;54.30;;;;;;5025466;28;20471;-50
2022/12/01 06:56:29;;;;;;;26.37;17.83;;;10.70;54.60;;;;;;5028271;28;20448;-51
2022/12/01 06:58:56;;;;;;;23.70;16.50;;;10.70;54.30;;;;;;5027649;28;20208;-50
2022/12/01 07:01:22;;;;;;;19.87;13.90;;;10.80;54.10;;;;;;5027584;28;20197;-50
2022/12/01 07:03:48;;;;;;;22.70;15.90;;;10.80;54.30;;;;;;5019042;28;20459;-51
2022/12/01 07:06:14;;;;;;;27.40;16.63;;;11.00;55.00;;;;;;5029342;28;20439;-50
2022/12/01 07:08:39;;;;;;;23.90;16.07;;;11.10;54.40;;;;;;5027333;28;20520;-52
2022/12/01 07:11:13;;;;;;;24.00;16.37;;;11.20;54.00;;;;;;5028371;28;20209;-53
2022/12/01 07:13:40;;;;;;;25.27;17.07;;;11.30;53.80;;;;;;5028751;28;20708;-51
2022/12/01 07:16:07;;;;;;;21.47;16.40;;;11.40;54.10;;;;;;5030160;28;20807;-49
2022/12/01 07:18:34;;;;;;;26.37;17.57;;;11.50;53.70;;;;;;5022970;28;20442;-50
2022/12/01 07:21:01;;;;;;;21.80;15.20;;;11.60;53.40;;;;;;5022213;28;20444;-51
2022/12/01 07:23:27;;;;;;;21.63;15.60;;;11.70;52.90;;;;;;5026161;28;21524;-50
2022/12/01 07:26:03;;;;;;;22.40;15.60;;;11.60;52.40;;;;;;5029873;28;20437;-50
2022/12/01 07:28:29;;;;;;;21.27;15.00;;;11.50;52.50;;;;;;5030355;28;20285;-54
2022/12/01 07:31:16;;;;;;;25.80;16.63;;;11.40;52.20;;;;;;5031014;28;20443;-53
2022/12/01 07:33:41;;;;;;;26.20;18.00;;;11.20;52.00;;;;;;5028361;28;20197;-51
2022/12/01 07:36:08;;;;;;;25.50;16.17;;;11.20;53.00;;;;;;5028230;28;20452;-54
2022/12/01 07:38:34;;;;;;;22.63;15.53;;;11.10;53.20;;;;;;5027059;28;20436;-52
2022/12/01 07:41:05;;;;;;;19.93;15.10;;;11.00;53.00;;;;;;5026289;28;20444;-51
2022/12/01 07:43:32;;;;;;;21.73;15.20;;;11.00;53.50;;;;;;5029013;28;20444;-53
2022/12/01 07:46:05;;;;;;;24.47;17.40;;;11.10;53.60;;;;;;5030597;28;20447;-51
2022/12/01 07:48:31;;;;;;;22.37;15.40;;;11.20;53.40;;;;;;5030820;28;20468;-52
2022/12/01 07:50:56;;;;;;;21.97;16.53;;;11.30;53.20;;;;;;5024848;28;20458;-51
2022/12/01 07:53:23;;;;;;;22.40;15.10;;;11.30;52.80;;;;;;5035685;28;20447;-52
2022/12/01 07:55:49;;;;;;;20.73;14.57;;;11.30;52.60;;;;;;5032921;28;20216;-51
2022/12/01 07:58:15;;;;;;;20.90;14.67;;;11.40;52.90;;;;;;5032413;28;20826;-50
2022/12/01 08:00:41;;;;;;;24.07;16.80;;;11.50;52.90;;;;;;5040189;28;20431;-51
2022/12/01 08:03:06;;;;;;;21.23;14.70;;;11.60;52.60;;;;;;5037242;28;20448;-50
2022/12/01 08:05:32;;;;;;;23.23;16.17;;;11.70;52.60;;;;;;5033471;28;20771;-51
2022/12/01 08:07:58;;;;;;;23.50;16.77;;;11.70;52.50;;;;;;5031589;28;20216;-50
2022/12/01 08:10:23;;;;;;;21.80;15.90;;;11.80;52.40;;;;;;5030278;28;20434;-52
2022/12/01 08:12:49;;;;;;;22.30;16.40;;;11.80;52.10;;;;;;5040085;28;20197;-52
2022/12/01 08:15:14;;;;;;;24.10;16.20;;;11.80;51.80;;;;;;5035247;28;20185;-54
2022/12/01 08:17:40;;;;;;;25.50;18.67;;;11.80;51.50;;;;;;5029592;28;20672;-51
2022/12/01 08:20:06;;;;;;;24.50;17.67;;;11.70;51.60;;;;;;5028605;28;20252;-50
2022/12/01 08:22:32;;;;;;;25.17;19.00;;;11.70;51.90;;;;;;5020847;28;20600;-52
2022/12/01 08:24:58;;;;;;;23.37;17.77;;;11.70;52.10;;;;;;5031548;28;20530;-51
2022/12/01 08:27:23;;;;;;;21.00;15.60;;;11.80;52.20;;;;;;5038232;28;20267;-50
2022/12/01 08:29:49;;;;;;;23.37;16.40;;;11.80;52.20;;;;;;5041309;28;20719;-51
2022/12/01 08:32:16;;;;;;;21.47;17.00;;;11.80;51.70;;;;;;5032765;28;20537;-52
2022/12/01 08:34:42;;;;;;;20.87;15.30;;;11.80;51.90;;;;;;5031054;28;20649;-51
2022/12/01 08:37:08;;;;;;;20.87;14.90;;;11.80;51.90;;;;;;5032563;28;20449;-53
2022/12/01 08:39:33;;;;;;;22.60;14.90;;;11.90;52.00;;;;;;5033031;28;20440;-50
2022/12/01 08:41:59;;;;;;;22.10;13.73;;;11.90;51.90;;;;;;5027919;28;20189;-51
2022/12/01 08:44:25;;;;;;;21.77;14.80;;;12.00;51.70;;;;;;5013886;28;20223;-51
2022/12/01 08:46:50;;;;;;;19.80;15.30;;;12.00;51.10;;;;;;5028178;28;20204;-53
2022/12/01 08:49:16;;;;;;;22.43;15.77;;;11.90;51.00;;;;;;5026829;28;20236;-51
2022/12/01 08:51:41;;;;;;;26.10;16.63;;;12.00;51.60;;;;;;5030088;28;20255;-50
2022/12/01 08:54:10;;;;;;;21.60;14.47;;;12.00;51.70;;;;;;5029216;28;20696;-50
2022/12/01 08:56:41;;;;;;;19.23;14.40;;;12.00;51.40;;;;;;5034681;28;21013;-51
2022/12/01 08:59:07;;;;;;;22.63;15.30;;;12.00;51.10;;;;;;5030166;28;20455;-53
2022/12/01 09:01:34;;;;;;;20.20;15.53;;;11.90;50.90;;;;;;5030980;28;20472;-51
2022/12/01 09:04:04;;;;;;;21.83;15.27;;;11.80;51.10;;;;;;5024465;28;20436;-51
2022/12/01 09:06:38;;;;;;;25.40;16.80;;;11.80;51.40;;;;;;5031507;28;20507;-50
2022/12/01 09:09:04;;;;;;;24.20;15.63;;;11.70;51.60;;;;;;5024307;28;20491;-51
2022/12/01 09:11:29;;;;;;;20.10;15.00;;;11.60;51.60;;;;;;5028653;28;20799;-51
2022/12/01 09:13:55;;;;;;;18.97;14.23;;;11.50;51.90;;;;;;5023015;28;20232;-54
2022/12/01 09:16:20;;;;;;;22.33;16.30;;;11.40;52.10;;;;;;5017384;28;20193;-50
2022/12/01 09:18:46;;;;;;;22.23;15.63;;;11.40;52.30;;;;;;5038243;28;20665;-50
2022/12/01 09:21:15;;;;;;;26.90;16.80;;;11.30;52.30;;;;;;5029491;28;20231;-51
2022/12/01 09:23:41;;;;;;;20.23;15.00;;;11.20;52.60;;;;;;5028322;28;20443;-51
2022/12/01 09:26:07;;;;;;;21.13;14.40;;;11.30;52.70;;;;;;5024500;28;20439;-52
2022/12/01 09:28:33;;;;;;;20.90;14.33;;;11.30;52.70;;;;;;5026419;28;20488;-50
2022/12/01 09:31:04;;;;;;;24.27;15.87;;;11.30;52.80;;;;;;5019877;28;20553;-52
2022/12/01 09:33:30;;;;;;;22.13;14.50;;;11.40;52.70;;;;;;5022522;28;20988;-50
2022/12/01 09:35:59;;;;;;;20.10;13.60;;;11.30;52.40;;;;;;5025415;28;20440;-50
2022/12/01 09:38:27;;;;;;;20.37;14.13;;;11.30;52.40;;;;;;5027477;28;20209;-51
2022/12/01 09:40:53;;;;;;;18.77;14.00;;;11.20;52.60;;;;;;5017101;28;20809;-50
2022/12/01 09:43:22;;;;;;;19.97;15.73;;;11.20;53.10;;;;;;5024770;28;20444;-52
2022/12/01 09:45:55;;;;;;;21.60;15.70;;;11.20;53.10;;;;;;5028960;28;20436;-52
2022/12/01 09:48:29;;;;;;;23.30;15.37;;;11.10;53.00;;;;;;5022978;28;20955;-54
2022/12/01 09:50:56;;;;;;;24.20;16.30;;;11.10;53.10;;;;;;5029258;28;20462;-50
2022/12/01 09:53:24;;;;;;;18.73;13.47;;;11.20;53.30;;;;;;5028224;28;20801;-50
2022/12/01 09:55:51;;;;;;;23.37;15.20;;;11.20;53.50;;;;;;5028868;28;21184;-50
2022/12/01 09:58:27;;;;;;;23.83;16.07;;;11.10;53.40;;;;;;5027988;28;20440;-50
2022/12/01 10:00:53;;;;;;;22.37;14.47;;;11.10;53.50;;;;;;5028703;28;20539;-52
2022/12/01 10:03:33;;;;;;;21.83;15.33;;;11.10;53.60;;;;;;5025368;28;20451;-51
2022/12/01 10:06:05;;;;;;;21.10;15.17;;;11.00;53.70;;;;;;5033358;28;20446;-50
2022/12/01 10:08:34;;;;;;;24.27;15.30;;;11.00;53.70;;;;;;5029779;28;20984;-51
2022/12/01 10:11:25;;;;;;;19.83;14.03;;;11.10;53.70;;;;;;5027414;28;20447;-53
2022/12/01 10:13:51;;;;;;;20.30;14.50;;;11.10;53.60;;;;;;5024548;28;20509;-52
2022/12/01 10:16:25;;;;;;;23.80;15.97;;;11.10;53.70;;;;;;5026170;28;20444;-50
2022/12/01 10:19:06;;;;;;;23.27;15.43;;;11.10;53.80;;;;;;5031680;28;20671;-53
2022/12/01 10:22:19;;;;;;;22.97;14.80;;;11.10;53.90;;;;;;5036113;28;21632;-52
2022/12/01 10:25:14;;;;;;;21.80;14.70;;;11.10;53.80;;;;;;5009581;28;20454;-49
2022/12/01 10:27:58;;;;;;;21.20;15.07;;;11.10;53.90;;;;;;4996277;28;20487;-52
2022/12/01 10:30:24;;;;;;;22.33;14.43;;;11.10;53.90;;;;;;5047927;28;20439;-51
2022/12/01 10:33:00;;;;;;;22.30;14.73;;;11.10;54.00;;;;;;5050207;28;20431;-52
2022/12/01 10:35:34;;;;;;;19.43;14.60;;;11.10;54.50;;;;;;5031123;28;20189;-54
2022/12/01 10:38:03;;;;;;;20.37;14.43;;;11.20;54.00;;;;;;5028500;28;20443;-52
2022/12/01 10:40:33;;;;;;;21.80;14.33;;;11.20;54.10;;;;;;5028110;28;20448;-53
2022/12/01 10:42:59;;;;;;;19.70;14.43;;;11.20;54.10;;;;;;5028494;28;20447;-54
2022/12/01 10:45:28;;;;;;;21.00;14.50;;;11.20;54.10;;;;;;5029473;28;20427;-53
2022/12/01 10:48:16;;;;;;;19.23;13.40;;;11.10;54.20;;;;;;5025463;28;20506;-54
2022/12/01 10:50:48;;;;;;;20.33;14.33;;;11.10;54.40;;;;;;5021143;28;20460;-54
2022/12/01 10:53:27;;;;;;;23.93;16.07;;;11.10;54.30;;;;;;5030283;28;20456;-53
2022/12/01 10:56:11;;;;;;;23.27;15.00;;;11.10;54.30;;;;;;5030624;28;20443;-53
2022/12/01 10:58:46;;;;;;;18.10;12.50;;;11.10;54.30;;;;;;5021778;28;20447;-54
2022/12/01 11:01:18;;;;;;;19.90;14.00;;;11.10;54.40;;;;;;5025678;28;20451;-54
2022/12/01 11:03:49;;;;;;;20.80;14.67;;;11.10;54.50;;;;;;5036954;28;20440;-55
2022/12/01 11:06:21;;;;;;;21.00;15.40;;;11.20;54.40;;;;;;5031283;28;20463;-51
2022/12/01 11:09:10;;;;;;;24.00;15.20;;;11.20;54.30;;;;;;5029002;28;20479;-54
2022/12/01 11:11:38;;;;;;;21.47;14.63;;;11.30;54.30;;;;;;5024299;28;20875;-51
2022/12/01 11:14:15;;;;;;;21.87;14.47;;;11.20;54.20;;;;;;5030055;28;20466;-54
2022/12/01 11:16:44;;;;;;;21.77;15.97;;;11.20;54.10;;;;;;5024790;28;20441;-50
2022/12/01 11:19:25;;;;;;;21.63;14.70;;;11.20;54.10;;;;;;5024731;28;20452;-52
2022/12/01 11:21:54;;;;;;;22.30;16.50;;;11.20;54.40;;;;;;5022330;28;20498;-53
2022/12/01 11:24:42;;;;;;;24.50;16.80;;;11.20;54.90;;;;;;5030007;28;20431;-54
2022/12/01 11:27:21;;;;;;;25.67;17.73;;;11.20;55.00;;;;;;5022729;28;21248;-50
2022/12/01 11:29:53;;;;;;;23.20;18.40;;;11.30;55.00;;;;;;5022208;28;20570;-54
2022/12/01 11:32:31;;;;;;;23.27;17.00;;;11.30;54.60;;;;;;5024315;28;20805;-53
2022/12/01 11:35:18;;;;;;;19.40;14.27;;;11.40;54.30;;;;;;5025669;28;20463;-50
2022/12/01 11:37:53;;;;;;;19.53;14.40;;;11.40;54.10;;;;;;5028081;28;20466;-53
2022/12/01 11:40:25;;;;;;;23.27;14.90;;;11.50;53.90;;;;;;5028874;28;20453;-52
2022/12/01 11:42:57;;;;;;;20.17;13.60;;;11.50;53.90;;;;;;5028318;28;20444;-54
2022/12/01 11:45:38;;;;;;;20.20;14.17;;;11.50;53.90;;;;;;5029466;28;20598;-52
2022/12/01 11:48:24;;;;;;;18.23;13.10;;;11.60;53.90;;;;;;5028027;28;20728;-51
2022/12/01 11:51:01;;;;;;;18.07;13.33;;;11.60;53.80;;;;;;5028757;28;20448;-54
2022/12/01 11:53:38;;;;;;;18.43;12.83;;;11.60;53.60;;;;;;5029245;28;20583;-53
2022/12/01 11:56:15;;;;;;;19.00;12.83;;;11.60;53.50;;;;;;5026451;28;20985;-54
2022/12/01 11:58:42;;;;;;;19.53;14.60;;;11.70;53.60;;;;;;5022778;28;20479;-51
2022/12/01 12:01:45;;;;;;;22.20;15.00;;;11.60;53.60;;;;;;5032597;28;20458;-52
2022/12/01 12:04:38;;;;;;;20.67;13.87;;;11.70;53.80;;;;;;5027613;28;20431;-51
2022/12/01 12:07:31;;;;;;;19.03;14.03;;;11.80;53.70;;;;;;5032195;28;21053;-54
2022/12/01 12:10:50;;;;;;;18.00;13.37;;;11.70;53.60;;;;;;5029305;28;21428;-52
2022/12/01 12:13:15;;;;;;;20.73;13.83;;;11.70;53.40;;;;;;5018241;28;20459;-52
2022/12/01 12:16:11;;;;;;;18.20;12.90;;;11.80;53.40;;;;;;5023426;28;20781;-52
2022/12/01 12:18:55;;;;;;;21.80;15.77;;;11.80;53.30;;;;;;5025779;28;20752;-53
2022/12/01 12:21:53;;;;;;;25.60;18.03;;;11.80;53.40;;;;;;5031209;28;20444;-51
2022/12/01 12:24:28;;;;;;;22.60;15.80;;;11.80;53.70;;;;;;5023600;28;20962;-51
2022/12/01 12:27:30;;;;;;;19.53;14.60;;;11.80;53.40;;;;;;5026667;28;20439;-51
2022/12/01 12:30:20;;;;;;;27.13;13.90;;;11.70;53.60;;;;;;5012345;28;20495;-54
2022/12/01 12:33:11;;;;;;;21.90;13.63;;;11.70;53.60;;;;;;5031019;28;20455;-53
2022/12/01 12:36:17;;;;;;;19.10;13.30;;;11.70;53.90;;;;;;5031522;28;21188;-53
2022/12/01 12:39:13;;;;;;;18.67;12.73;;;11.80;53.70;;;;;;5017619;28;20543;-53
2022/12/01 12:41:52;;;;;;;18.70;13.50;;;11.80;53.90;;;;;;5028481;28;20455;-51
2022/12/01 12:44:53;;;;;;;19.23;14.27;;;11.80;53.30;;;;;;5028242;28;20444;-51
2022/12/01 12:50:46;;;;;;;17.77;13.13;;;11.70;53.50;;;;;;5164229;22;20493;-54
2022/12/01 12:53:22;;;;;;;20.23;14.03;;;11.80;53.70;;;;;;5049417;28;20450;-55